sensor_id;sensor_type;location;lat;lon;timestamp;temperature;humidity
18126;DHT22;53956;52.442;13.284;2022-09-20T00:00:13;14.10;99.90
18126;DHT22;53956;52.442;13.284;2022-09-20T00:02:40;14.00;99.90
18126;DHT22;53956;52.442;13.284;2022-09-20T00:05:07;13.90;99.90
18126;DHT22;53956;52.442;13.284;2022-09-20T00:07:35;13.90;99.90
18126;DHT22;53956;52.442;13.284;2022-09-20T00:10:02;13.90;99.90
18126;DHT22;53956;52.442;13.284;2022-09-20T00:12:29;13.90;99.90
18126;DHT22;53956;52.442;13.284;2022-09-20T00:14:55;13.90;99.90
18126;DHT22;53956;52.442;13.284;2022-09-20T00:17:22;14.00;99.90
18126;DHT22;53956;52.442;13.284;2022-09-20T00:19:48;13.90;99.90
18126;DHT22;53956;52.442;13.284;2022-09-20T00:22:15;14.00;99.90
18126;DHT22;53956;52.442;13.284;2022-09-20T00:24:43;13.90;99.90
18126;DHT22;53956;52.442;13.284;2022-09-20T00:27:10;13.90;99.90
18126;DHT22;53956;52.442;13.284;2022-09-20T00:29:37;14.00;99.90
18126;DHT22;53956;52.442;13.284;2022-09-20T00:32:03;13.90;99.90
18126;DHT22;53956;52.442;13.284;2022-09-20T00:34:30;13.90;99.90
18126;DHT22;53956;52.442;13.284;2022-09-20T00:37:14;14.00;99.90
18126;DHT22;53956;52.442;13.284;2022-09-20T00:39:42;13.90;99.90
18126;DHT22;53956;52.442;13.284;2022-09-20T00:42:12;14.00;99.90
18126;DHT22;53956;52.442;13.284;2022-09-20T00:44:53;13.90;99.90
18126;DHT22;53956;52.442;13.284;2022-09-20T00:47:29;13.90;99.90
18126;DHT22;53956;52.442;13.284;2022-09-20T00:50:02;14.00;99.90
18126;DHT22;53956;52.442;13.284;2022-09-20T00:52:30;14.00;99.90
18126;DHT22;53956;52.442;13.284;2022-09-20T00:54:59;13.90;99.90
18126;DHT22;53956;52.442;13.284;2022-09-20T00:57:26;13.90;99.90
18126;DHT22;53956;52.442;13.284;2022-09-20T01:00:00;13.80;99.90
18126;DHT22;53956;52.442;13.284;2022-09-20T01:02:29;13.90;99.90
18126;DHT22;53956;52.442;13.284;2022-09-20T01:04:57;13.90;99.90
18126;DHT22;53956;52.442;13.284;2022-09-20T01:07:24;13.80;99.90
18126;DHT22;53956;52.442;13.284;2022-09-20T01:09:51;13.80;99.90
18126;DHT22;53956;52.442;13.284;2022-09-20T01:12:21;13.80;99.90
18126;DHT22;53956;52.442;13.284;2022-09-20T01:14:50;13.90;99.90
18126;DHT22;53956;52.442;13.284;2022-09-20T01:17:18;13.80;99.90
18126;DHT22;53956;52.442;13.284;2022-09-20T01:19:51;13.80;99.90
18126;DHT22;53956;52.442;13.284;2022-09-20T01:22:24;13.80;99.90
18126;DHT22;53956;52.442;13.284;2022-09-20T01:24:57;13.80;99.90
18126;DHT22;53956;52.442;13.284;2022-09-20T01:27:39;13.70;99.90
18126;DHT22;53956;52.442;13.284;2022-09-20T01:30:08;13.70;99.90
18126;DHT22;53956;52.442;13.284;2022-09-20T01:32:44;13.80;99.90
18126;DHT22;53956;52.442;13.284;2022-09-20T01:35:11;13.80;99.90
18126;DHT22;53956;52.442;13.284;2022-09-20T01:37:49;13.70;99.90
18126;DHT22;53956;52.442;13.284;2022-09-20T01:40:26;13.80;99.90
18126;DHT22;53956;52.442;13.284;2022-09-20T01:43:04;13.70;99.90
18126;DHT22;53956;52.442;13.284;2022-09-20T01:45:34;13.60;99.90
18126;DHT22;53956;52.442;13.284;2022-09-20T01:48:08;13.80;99.90
18126;DHT22;53956;52.442;13.284;2022-09-20T01:50:49;13.70;99.90
18126;DHT22;53956;52.442;13.284;2022-09-20T01:53:58;13.80;99.90
18126;DHT22;53956;52.442;13.284;2022-09-20T01:59:54;13.80;99.90
18126;DHT22;53956;52.442;13.284;2022-09-20T02:08:55;13.80;99.90
18126;DHT22;53956;52.442;13.284;2022-09-20T02:11:30;13.70;99.90
18126;DHT22;53956;52.442;13.284;2022-09-20T02:14:24;13.80;99.90
18126;DHT22;53956;52.442;13.284;2022-09-20T02:16:57;13.80;99.90
18126;DHT22;53956;52.442;13.284;2022-09-20T02:19:37;13.80;99.90
18126;DHT22;53956;52.442;13.284;2022-09-20T02:26:04;13.80;99.90
18126;DHT22;53956;52.442;13.284;2022-09-20T02:28:50;13.80;99.90
18126;DHT22;53956;52.442;13.284;2022-09-20T02:31:27;13.80;99.90
18126;DHT22;53956;52.442;13.284;2022-09-20T02:34:21;13.80;99.90
18126;DHT22;53956;52.442;13.284;2022-09-20T02:37:06;13.90;99.90
18126;DHT22;53956;52.442;13.284;2022-09-20T02:39:44;13.80;99.90
18126;DHT22;53956;52.442;13.284;2022-09-20T02:42:17;13.90;99.90
18126;DHT22;53956;52.442;13.284;2022-09-20T02:44:53;13.90;99.90
18126;DHT22;53956;52.442;13.284;2022-09-20T02:47:28;13.80;99.90
18126;DHT22;53956;52.442;13.284;2022-09-20T02:50:10;13.80;99.90
18126;DHT22;53956;52.442;13.284;2022-09-20T02:52:45;13.80;99.90
18126;DHT22;53956;52.442;13.284;2022-09-20T02:55:17;13.80;99.90
18126;DHT22;53956;52.442;13.284;2022-09-20T02:57:54;13.80;99.90
18126;DHT22;53956;52.442;13.284;2022-09-20T03:00:27;13.90;99.90
18126;DHT22;53956;52.442;13.284;2022-09-20T03:03:07;13.80;99.90
18126;DHT22;53956;52.442;13.284;2022-09-20T03:05:46;13.80;99.90
18126;DHT22;53956;52.442;13.284;2022-09-20T03:08:32;13.90;99.90
18126;DHT22;53956;52.442;13.284;2022-09-20T03:11:08;13.90;99.90
18126;DHT22;53956;52.442;13.284;2022-09-20T03:13:49;13.90;99.90
18126;DHT22;53956;52.442;13.284;2022-09-20T03:16:25;13.80;99.90
18126;DHT22;53956;52.442;13.284;2022-09-20T03:18:59;13.80;99.90
18126;DHT22;53956;52.442;13.284;2022-09-20T03:21:39;13.80;99.90
18126;DHT22;53956;52.442;13.284;2022-09-20T03:24:20;13.80;99.90
18126;DHT22;53956;52.442;13.284;2022-09-20T03:26:55;13.80;99.90
18126;DHT22;53956;52.442;13.284;2022-09-20T03:29:36;13.80;99.90
18126;DHT22;53956;52.442;13.284;2022-09-20T03:32:11;13.90;99.90
18126;DHT22;53956;52.442;13.284;2022-09-20T03:34:49;13.80;99.90
18126;DHT22;53956;52.442;13.284;2022-09-20T03:37:33;13.90;99.90
18126;DHT22;53956;52.442;13.284;2022-09-20T03:40:27;13.90;99.90
18126;DHT22;53956;52.442;13.284;2022-09-20T03:43:03;13.90;99.90
18126;DHT22;53956;52.442;13.284;2022-09-20T03:45:49;13.90;99.90
18126;DHT22;53956;52.442;13.284;2022-09-20T03:48:33;13.90;99.90
18126;DHT22;53956;52.442;13.284;2022-09-20T03:51:19;14.00;99.90
18126;DHT22;53956;52.442;13.284;2022-09-20T03:53:58;13.90;99.90
18126;DHT22;53956;52.442;13.284;2022-09-20T03:56:50;13.90;99.90
18126;DHT22;53956;52.442;13.284;2022-09-20T03:59:34;13.90;99.90
18126;DHT22;53956;52.442;13.284;2022-09-20T04:02:32;13.90;99.90
18126;DHT22;53956;52.442;13.284;2022-09-20T04:05:04;13.90;99.90
18126;DHT22;53956;52.442;13.284;2022-09-20T04:07:38;13.90;99.90
18126;DHT22;53956;52.442;13.284;2022-09-20T04:10:26;13.80;99.90
18126;DHT22;53956;52.442;13.284;2022-09-20T04:13:03;13.80;99.90
18126;DHT22;53956;52.442;13.284;2022-09-20T04:15:41;13.70;99.90
18126;DHT22;53956;52.442;13.284;2022-09-20T04:18:17;13.80;99.90
18126;DHT22;53956;52.442;13.284;2022-09-20T04:20:51;13.80;99.90
18126;DHT22;53956;52.442;13.284;2022-09-20T04:23:29;13.80;99.90
18126;DHT22;53956;52.442;13.284;2022-09-20T04:26:00;13.80;99.90
18126;DHT22;53956;52.442;13.284;2022-09-20T04:28:33;13.80;99.90
18126;DHT22;53956;52.442;13.284;2022-09-20T04:31:05;13.80;99.90
18126;DHT22;53956;52.442;13.284;2022-09-20T04:33:42;13.80;99.90
18126;DHT22;53956;52.442;13.284;2022-09-20T04:36:22;13.80;99.90
18126;DHT22;53956;52.442;13.284;2022-09-20T04:39:02;13.80;99.90
18126;DHT22;53956;52.442;13.284;2022-09-20T04:41:51;13.80;99.90
18126;DHT22;53956;52.442;13.284;2022-09-20T04:44:51;13.80;99.90
18126;DHT22;53956;52.442;13.284;2022-09-20T04:51:06;13.80;99.90
18126;DHT22;53956;52.442;13.284;2022-09-20T04:53:50;13.80;99.90
18126;DHT22;53956;52.442;13.284;2022-09-20T04:56:28;13.70;99.90
18126;DHT22;53956;52.442;13.284;2022-09-20T04:59:06;13.80;99.90
18126;DHT22;53956;52.442;13.284;2022-09-20T05:08:32;13.80;99.90
18126;DHT22;53956;52.442;13.284;2022-09-20T05:11:37;13.80;99.90
18126;DHT22;53956;52.442;13.284;2022-09-20T05:14:23;13.80;99.90
18126;DHT22;53956;52.442;13.284;2022-09-20T05:17:08;13.70;99.90
18126;DHT22;53956;52.442;13.284;2022-09-20T05:19:48;13.70;99.90
18126;DHT22;53956;52.442;13.284;2022-09-20T05:22:37;13.80;99.90
18126;DHT22;53956;52.442;13.284;2022-09-20T05:25:46;13.80;99.90
18126;DHT22;53956;52.442;13.284;2022-09-20T05:28:21;13.70;99.90
18126;DHT22;53956;52.442;13.284;2022-09-20T05:30:56;13.80;99.90
18126;DHT22;53956;52.442;13.284;2022-09-20T05:33:28;13.70;99.90
18126;DHT22;53956;52.442;13.284;2022-09-20T05:36:03;13.80;99.90
18126;DHT22;53956;52.442;13.284;2022-09-20T05:38:41;13.90;99.90
18126;DHT22;53956;52.442;13.284;2022-09-20T05:41:12;14.00;99.90
18126;DHT22;53956;52.442;13.284;2022-09-20T05:43:51;14.00;99.90
18126;DHT22;53956;52.442;13.284;2022-09-20T05:46:35;14.30;99.90
18126;DHT22;53956;52.442;13.284;2022-09-20T05:49:14;14.90;99.90
18126;DHT22;53956;52.442;13.284;2022-09-20T05:51:57;15.40;97.60
18126;DHT22;53956;52.442;13.284;2022-09-20T05:54:45;16.30;94.90
18126;DHT22;53956;52.442;13.284;2022-09-20T05:57:24;16.40;94.50
18126;DHT22;53956;52.442;13.284;2022-09-20T05:59:59;17.10;92.60
18126;DHT22;53956;52.442;13.284;2022-09-20T06:02:42;17.40;90.70
18126;DHT22;53956;52.442;13.284;2022-09-20T06:05:15;18.20;87.50
18126;DHT22;53956;52.442;13.284;2022-09-20T06:07:52;18.60;86.30
18126;DHT22;53956;52.442;13.284;2022-09-20T06:10:31;19.50;83.90
18126;DHT22;53956;52.442;13.284;2022-09-20T06:13:14;20.30;80.90
18126;DHT22;53956;52.442;13.284;2022-09-20T06:15:55;20.40;79.80
18126;DHT22;53956;52.442;13.284;2022-09-20T06:18:28;19.70;81.20
18126;DHT22;53956;52.442;13.284;2022-09-20T06:21:06;19.60;81.70
18126;DHT22;53956;52.442;13.284;2022-09-20T06:23:35;19.30;81.70
18126;DHT22;53956;52.442;13.284;2022-09-20T06:26:06;18.70;82.90
18126;DHT22;53956;52.442;13.284;2022-09-20T06:28:37;18.00;86.70
18126;DHT22;53956;52.442;13.284;2022-09-20T06:31:06;17.30;89.00
18126;DHT22;53956;52.442;13.284;2022-09-20T06:33:39;16.90;90.20
18126;DHT22;53956;52.442;13.284;2022-09-20T06:36:11;16.50;91.70
18126;DHT22;53956;52.442;13.284;2022-09-20T06:39:05;16.50;92.00
18126;DHT22;53956;52.442;13.284;2022-09-20T06:41:50;16.30;93.20
18126;DHT22;53956;52.442;13.284;2022-09-20T06:44:17;16.30;93.00
18126;DHT22;53956;52.442;13.284;2022-09-20T06:46:44;16.50;92.80
18126;DHT22;53956;52.442;13.284;2022-09-20T06:49:12;16.40;93.10
18126;DHT22;53956;52.442;13.284;2022-09-20T06:51:39;17.40;90.80
18126;DHT22;53956;52.442;13.284;2022-09-20T06:54:07;18.00;88.70
18126;DHT22;53956;52.442;13.284;2022-09-20T06:56:39;19.20;85.30
18126;DHT22;53956;52.442;13.284;2022-09-20T06:59:05;20.40;81.10
18126;DHT22;53956;52.442;13.284;2022-09-20T07:01:34;21.80;76.00
18126;DHT22;53956;52.442;13.284;2022-09-20T07:04:01;23.00;72.50
18126;DHT22;53956;52.442;13.284;2022-09-20T07:06:29;24.10;67.60
18126;DHT22;53956;52.442;13.284;2022-09-20T07:08:56;24.70;66.10
18126;DHT22;53956;52.442;13.284;2022-09-20T07:11:23;25.50;63.60
18126;DHT22;53956;52.442;13.284;2022-09-20T07:13:51;25.90;62.20
18126;DHT22;53956;52.442;13.284;2022-09-20T07:16:18;26.20;61.20
18126;DHT22;53956;52.442;13.284;2022-09-20T07:18:45;26.20;60.40
18126;DHT22;53956;52.442;13.284;2022-09-20T07:21:14;26.20;60.10
18126;DHT22;53956;52.442;13.284;2022-09-20T07:23:42;25.90;60.40
18126;DHT22;53956;52.442;13.284;2022-09-20T07:26:16;26.10;59.90
18126;DHT22;53956;52.442;13.284;2022-09-20T07:28:43;25.70;60.50
18126;DHT22;53956;52.442;13.284;2022-09-20T07:31:10;25.80;59.80
18126;DHT22;53956;52.442;13.284;2022-09-20T07:33:37;24.80;61.50
18126;DHT22;53956;52.442;13.284;2022-09-20T07:36:03;24.00;63.20
18126;DHT22;53956;52.442;13.284;2022-09-20T07:38:30;24.40;62.70
18126;DHT22;53956;52.442;13.284;2022-09-20T07:41:00;24.60;61.50
18126;DHT22;53956;52.442;13.284;2022-09-20T07:43:27;25.20;60.90
18126;DHT22;53956;52.442;13.284;2022-09-20T07:45:54;25.70;59.90
18126;DHT22;53956;52.442;13.284;2022-09-20T07:48:24;26.00;59.20
18126;DHT22;53956;52.442;13.284;2022-09-20T07:50:53;26.80;57.30
18126;DHT22;53956;52.442;13.284;2022-09-20T07:53:20;26.50;57.00
18126;DHT22;53956;52.442;13.284;2022-09-20T07:56:02;27.00;56.00
18126;DHT22;53956;52.442;13.284;2022-09-20T07:58:31;27.30;55.80
18126;DHT22;53956;52.442;13.284;2022-09-20T08:00:59;27.50;55.00
18126;DHT22;53956;52.442;13.284;2022-09-20T08:03:28;27.40;54.70
18126;DHT22;53956;52.442;13.284;2022-09-20T08:05:58;27.20;55.40
18126;DHT22;53956;52.442;13.284;2022-09-20T08:08:25;27.30;55.10
18126;DHT22;53956;52.442;13.284;2022-09-20T08:11:01;27.20;54.70
18126;DHT22;53956;52.442;13.284;2022-09-20T08:13:29;27.20;55.30
18126;DHT22;53956;52.442;13.284;2022-09-20T08:16:00;27.30;55.20
18126;DHT22;53956;52.442;13.284;2022-09-20T08:18:28;27.50;55.10
18126;DHT22;53956;52.442;13.284;2022-09-20T08:20:55;27.60;54.20
18126;DHT22;53956;52.442;13.284;2022-09-20T08:23:22;27.40;54.80
18126;DHT22;53956;52.442;13.284;2022-09-20T08:25:48;27.40;54.70
18126;DHT22;53956;52.442;13.284;2022-09-20T08:28:16;27.30;54.60
18126;DHT22;53956;52.442;13.284;2022-09-20T08:30:43;27.40;54.80
18126;DHT22;53956;52.442;13.284;2022-09-20T08:33:09;27.60;53.80
18126;DHT22;53956;52.442;13.284;2022-09-20T08:35:37;27.60;54.00
18126;DHT22;53956;52.442;13.284;2022-09-20T08:38:04;27.10;54.90
18126;DHT22;53956;52.442;13.284;2022-09-20T08:40:31;27.30;54.80
18126;DHT22;53956;52.442;13.284;2022-09-20T08:42:59;26.30;56.40
18126;DHT22;53956;52.442;13.284;2022-09-20T08:45:27;26.30;56.80
18126;DHT22;53956;52.442;13.284;2022-09-20T08:47:56;25.90;57.90
18126;DHT22;53956;52.442;13.284;2022-09-20T08:50:25;25.70;57.80
18126;DHT22;53956;52.442;13.284;2022-09-20T08:52:54;26.00;57.60
18126;DHT22;53956;52.442;13.284;2022-09-20T08:55:24;25.60;59.00
18126;DHT22;53956;52.442;13.284;2022-09-20T08:57:54;25.40;58.70
18126;DHT22;53956;52.442;13.284;2022-09-20T09:00:22;24.00;61.00
18126;DHT22;53956;52.442;13.284;2022-09-20T09:02:54;23.20;64.80
18126;DHT22;53956;52.442;13.284;2022-09-20T09:05:30;22.30;67.70
18126;DHT22;53956;52.442;13.284;2022-09-20T09:07:58;22.20;69.00
18126;DHT22;53956;52.442;13.284;2022-09-20T09:10:28;22.20;68.90
18126;DHT22;53956;52.442;13.284;2022-09-20T09:12:55;21.80;69.50
18126;DHT22;53956;52.442;13.284;2022-09-20T09:15:24;21.90;71.20
18126;DHT22;53956;52.442;13.284;2022-09-20T09:17:55;21.50;72.30
18126;DHT22;53956;52.442;13.284;2022-09-20T09:20:22;20.90;75.10
18126;DHT22;53956;52.442;13.284;2022-09-20T09:22:58;20.70;75.60
18126;DHT22;53956;52.442;13.284;2022-09-20T09:25:26;20.60;76.10
18126;DHT22;53956;52.442;13.284;2022-09-20T09:28:00;20.80;75.00
18126;DHT22;53956;52.442;13.284;2022-09-20T09:30:29;20.60;75.90
18126;DHT22;53956;52.442;13.284;2022-09-20T09:33:18;20.40;77.40
18126;DHT22;53956;52.442;13.284;2022-09-20T09:35:52;20.30;77.40
18126;DHT22;53956;52.442;13.284;2022-09-20T09:38:21;20.50;76.80
18126;DHT22;53956;52.442;13.284;2022-09-20T09:40:50;20.50;77.20
18126;DHT22;53956;52.442;13.284;2022-09-20T09:43:23;20.30;77.50
18126;DHT22;53956;52.442;13.284;2022-09-20T09:45:52;20.30;77.20
18126;DHT22;53956;52.442;13.284;2022-09-20T09:48:23;20.10;78.00
18126;DHT22;53956;52.442;13.284;2022-09-20T09:51:06;20.10;78.70
18126;DHT22;53956;52.442;13.284;2022-09-20T09:53:33;19.80;78.90
18126;DHT22;53956;52.442;13.284;2022-09-20T09:56:19;19.70;79.70
18126;DHT22;53956;52.442;13.284;2022-09-20T09:59:03;19.40;80.20
18126;DHT22;53956;52.442;13.284;2022-09-20T10:01:42;19.40;80.30
18126;DHT22;53956;52.442;13.284;2022-09-20T10:04:18;19.30;80.70
18126;DHT22;53956;52.442;13.284;2022-09-20T10:06:53;19.20;80.90
18126;DHT22;53956;52.442;13.284;2022-09-20T10:09:29;19.10;80.90
18126;DHT22;53956;52.442;13.284;2022-09-20T10:12:12;19.10;81.80
18126;DHT22;53956;52.442;13.284;2022-09-20T10:14:52;19.20;81.40
18126;DHT22;53956;52.442;13.284;2022-09-20T10:17:33;19.30;81.20
18126;DHT22;53956;52.442;13.284;2022-09-20T10:20:28;19.50;80.30
18126;DHT22;53956;52.442;13.284;2022-09-20T10:23:05;19.40;80.10
18126;DHT22;53956;52.442;13.284;2022-09-20T10:25:40;19.40;80.40
18126;DHT22;53956;52.442;13.284;2022-09-20T10:28:20;19.30;80.20
18126;DHT22;53956;52.442;13.284;2022-09-20T10:30:55;19.20;79.90
18126;DHT22;53956;52.442;13.284;2022-09-20T10:33:31;19.10;81.00
18126;DHT22;53956;52.442;13.284;2022-09-20T10:36:14;19.10;80.40
18126;DHT22;53956;52.442;13.284;2022-09-20T10:38:48;18.90;80.40
18126;DHT22;53956;52.442;13.284;2022-09-20T10:41:32;19.00;80.20
18126;DHT22;53956;52.442;13.284;2022-09-20T10:44:33;19.30;80.30
18126;DHT22;53956;52.442;13.284;2022-09-20T10:47:05;19.40;80.30
18126;DHT22;53956;52.442;13.284;2022-09-20T10:49:41;19.40;79.30
18126;DHT22;53956;52.442;13.284;2022-09-20T10:52:19;19.30;79.20
18126;DHT22;53956;52.442;13.284;2022-09-20T10:55:00;19.50;80.10
18126;DHT22;53956;52.442;13.284;2022-09-20T10:57:53;19.70;79.10
18126;DHT22;53956;52.442;13.284;2022-09-20T11:00:31;19.60;79.40
18126;DHT22;53956;52.442;13.284;2022-09-20T11:03:12;19.60;79.20
18126;DHT22;53956;52.442;13.284;2022-09-20T11:05:49;19.50;79.90
18126;DHT22;53956;52.442;13.284;2022-09-20T11:08:23;19.30;79.60
18126;DHT22;53956;52.442;13.284;2022-09-20T11:10:54;19.40;80.00
18126;DHT22;53956;52.442;13.284;2022-09-20T11:13:26;19.40;79.70
18126;DHT22;53956;52.442;13.284;2022-09-20T11:15:59;19.50;79.60
18126;DHT22;53956;52.442;13.284;2022-09-20T11:18:31;19.50;79.30
18126;DHT22;53956;52.442;13.284;2022-09-20T11:21:07;19.50;79.20
18126;DHT22;53956;52.442;13.284;2022-09-20T11:23:45;19.40;79.40
18126;DHT22;53956;52.442;13.284;2022-09-20T11:26:18;19.50;79.00
18126;DHT22;53956;52.442;13.284;2022-09-20T11:28:49;19.30;78.90
18126;DHT22;53956;52.442;13.284;2022-09-20T11:31:20;19.20;79.60
18126;DHT22;53956;52.442;13.284;2022-09-20T11:33:52;19.10;80.40
18126;DHT22;53956;52.442;13.284;2022-09-20T11:36:24;18.70;79.60
18126;DHT22;53956;52.442;13.284;2022-09-20T11:38:56;18.70;80.70
18126;DHT22;53956;52.442;13.284;2022-09-20T11:41:28;18.60;82.50
18126;DHT22;53956;52.442;13.284;2022-09-20T11:43:58;18.50;84.80
18126;DHT22;53956;52.442;13.284;2022-09-20T11:46:29;18.20;85.60
18126;DHT22;53956;52.442;13.284;2022-09-20T11:48:59;18.10;88.40
18126;DHT22;53956;52.442;13.284;2022-09-20T11:51:45;18.00;88.50
18126;DHT22;53956;52.442;13.284;2022-09-20T11:54:34;17.90;88.10
18126;DHT22;53956;52.442;13.284;2022-09-20T11:57:04;17.70;89.00
18126;DHT22;53956;52.442;13.284;2022-09-20T11:59:35;17.70;89.00
18126;DHT22;53956;52.442;13.284;2022-09-20T12:02:10;17.60;88.60
18126;DHT22;53956;52.442;13.284;2022-09-20T12:04:43;17.60;89.00
18126;DHT22;53956;52.442;13.284;2022-09-20T12:07:15;17.70;88.70
18126;DHT22;53956;52.442;13.284;2022-09-20T12:09:45;17.80;88.80
18126;DHT22;53956;52.442;13.284;2022-09-20T12:12:28;17.60;89.10
18126;DHT22;53956;52.442;13.284;2022-09-20T12:14:58;17.80;89.60
18126;DHT22;53956;52.442;13.284;2022-09-20T12:18:00;17.70;90.00
18126;DHT22;53956;52.442;13.284;2022-09-20T12:24:19;17.60;91.60
18126;DHT22;53956;52.442;13.284;2022-09-20T12:26:49;17.70;92.40
18126;DHT22;53956;52.442;13.284;2022-09-20T12:29:50;17.40;92.50
18126;DHT22;53956;52.442;13.284;2022-09-20T12:32:54;17.50;92.60
18126;DHT22;53956;52.442;13.284;2022-09-20T12:35:58;17.60;92.70
18126;DHT22;53956;52.442;13.284;2022-09-20T12:38:48;17.60;92.40
18126;DHT22;53956;52.442;13.284;2022-09-20T12:41:17;17.70;93.00
18126;DHT22;53956;52.442;13.284;2022-09-20T12:43:55;17.80;93.10
18126;DHT22;53956;52.442;13.284;2022-09-20T12:49:32;17.50;94.00
18126;DHT22;53956;52.442;13.284;2022-09-20T12:52:26;17.80;92.90
18126;DHT22;53956;52.442;13.284;2022-09-20T12:55:26;17.80;93.60
18126;DHT22;53956;52.442;13.284;2022-09-20T12:57:55;17.90;93.90
18126;DHT22;53956;52.442;13.284;2022-09-20T13:00:32;17.90;93.40
18126;DHT22;53956;52.442;13.284;2022-09-20T13:03:10;17.90;92.50
18126;DHT22;53956;52.442;13.284;2022-09-20T13:05:39;17.70;93.20
18126;DHT22;53956;52.442;13.284;2022-09-20T13:08:13;17.70;92.30
18126;DHT22;53956;52.442;13.284;2022-09-20T13:10:44;17.50;90.70
18126;DHT22;53956;52.442;13.284;2022-09-20T13:13:32;17.30;91.20
18126;DHT22;53956;52.442;13.284;2022-09-20T13:16:03;17.00;91.50
18126;DHT22;53956;52.442;13.284;2022-09-20T13:18:33;16.80;91.50
18126;DHT22;53956;52.442;13.284;2022-09-20T13:21:02;16.60;92.00
18126;DHT22;53956;52.442;13.284;2022-09-20T13:23:41;16.50;92.60
18126;DHT22;53956;52.442;13.284;2022-09-20T13:26:10;16.40;92.80
18126;DHT22;53956;52.442;13.284;2022-09-20T13:28:44;16.40;92.50
18126;DHT22;53956;52.442;13.284;2022-09-20T13:31:28;16.30;92.70
18126;DHT22;53956;52.442;13.284;2022-09-20T13:34:11;16.20;92.50
18126;DHT22;53956;52.442;13.284;2022-09-20T13:36:38;16.20;92.50
18126;DHT22;53956;52.442;13.284;2022-09-20T13:39:06;16.20;92.00
18126;DHT22;53956;52.442;13.284;2022-09-20T13:41:33;16.20;91.80
18126;DHT22;53956;52.442;13.284;2022-09-20T13:44:02;16.20;92.60
18126;DHT22;53956;52.442;13.284;2022-09-20T13:46:32;16.20;93.20
18126;DHT22;53956;52.442;13.284;2022-09-20T13:49:12;16.30;92.90
18126;DHT22;53956;52.442;13.284;2022-09-20T13:51:40;16.30;93.20
18126;DHT22;53956;52.442;13.284;2022-09-20T13:54:18;16.40;92.70
18126;DHT22;53956;52.442;13.284;2022-09-20T13:56:46;16.30;92.90
18126;DHT22;53956;52.442;13.284;2022-09-20T13:59:13;16.40;92.90
18126;DHT22;53956;52.442;13.284;2022-09-20T14:01:48;16.60;93.00
18126;DHT22;53956;52.442;13.284;2022-09-20T14:04:17;16.60;93.30
18126;DHT22;53956;52.442;13.284;2022-09-20T14:06:46;16.70;93.00
18126;DHT22;53956;52.442;13.284;2022-09-20T14:09:19;16.70;93.40
18126;DHT22;53956;52.442;13.284;2022-09-20T14:11:47;16.70;93.80
18126;DHT22;53956;52.442;13.284;2022-09-20T14:14:14;16.70;93.50
18126;DHT22;53956;52.442;13.284;2022-09-20T14:16:44;16.70;93.70
18126;DHT22;53956;52.442;13.284;2022-09-20T14:19:15;16.60;94.30
18126;DHT22;53956;52.442;13.284;2022-09-20T14:21:43;16.80;93.60
18126;DHT22;53956;52.442;13.284;2022-09-20T14:24:24;16.80;93.60
18126;DHT22;53956;52.442;13.284;2022-09-20T14:27:04;16.70;93.00
18126;DHT22;53956;52.442;13.284;2022-09-20T14:29:39;16.70;93.80
18126;DHT22;53956;52.442;13.284;2022-09-20T14:32:19;16.80;94.20
18126;DHT22;53956;52.442;13.284;2022-09-20T14:34:52;16.80;94.30
18126;DHT22;53956;52.442;13.284;2022-09-20T14:37:24;16.90;93.90
18126;DHT22;53956;52.442;13.284;2022-09-20T14:39:53;16.90;93.40
18126;DHT22;53956;52.442;13.284;2022-09-20T14:42:29;16.90;93.40
18126;DHT22;53956;52.442;13.284;2022-09-20T14:44:57;17.00;92.50
18126;DHT22;53956;52.442;13.284;2022-09-20T14:47:27;17.10;92.10
18126;DHT22;53956;52.442;13.284;2022-09-20T14:49:54;17.10;90.90
18126;DHT22;53956;52.442;13.284;2022-09-20T14:52:36;17.10;90.50
18126;DHT22;53956;52.442;13.284;2022-09-20T14:55:23;17.00;91.80
18126;DHT22;53956;52.442;13.284;2022-09-20T14:57:59;17.10;91.90
18126;DHT22;53956;52.442;13.284;2022-09-20T15:00:28;16.90;91.30
18126;DHT22;53956;52.442;13.284;2022-09-20T15:03:02;17.00;91.20
18126;DHT22;53956;52.442;13.284;2022-09-20T15:05:29;17.10;90.30
18126;DHT22;53956;52.442;13.284;2022-09-20T15:07:56;17.20;90.00
18126;DHT22;53956;52.442;13.284;2022-09-20T15:10:23;17.00;91.90
18126;DHT22;53956;52.442;13.284;2022-09-20T15:12:51;17.10;92.20
18126;DHT22;53956;52.442;13.284;2022-09-20T15:15:18;17.10;91.00
18126;DHT22;53956;52.442;13.284;2022-09-20T15:17:45;17.00;90.90
18126;DHT22;53956;52.442;13.284;2022-09-20T15:20:16;17.10;91.10
18126;DHT22;53956;52.442;13.284;2022-09-20T15:22:43;17.00;90.80
18126;DHT22;53956;52.442;13.284;2022-09-20T15:25:14;17.00;91.00
18126;DHT22;53956;52.442;13.284;2022-09-20T15:27:41;17.00;90.70
18126;DHT22;53956;52.442;13.284;2022-09-20T15:30:10;16.80;90.80
18126;DHT22;53956;52.442;13.284;2022-09-20T15:32:37;16.80;90.90
18126;DHT22;53956;52.442;13.284;2022-09-20T15:35:05;16.70;91.80
18126;DHT22;53956;52.442;13.284;2022-09-20T15:37:33;16.80;91.60
18126;DHT22;53956;52.442;13.284;2022-09-20T15:39:59;16.80;91.40
18126;DHT22;53956;52.442;13.284;2022-09-20T15:42:27;16.80;91.20
18126;DHT22;53956;52.442;13.284;2022-09-20T15:44:53;16.70;91.80
18126;DHT22;53956;52.442;13.284;2022-09-20T15:47:20;16.60;91.80
18126;DHT22;53956;52.442;13.284;2022-09-20T15:49:48;16.70;91.20
18126;DHT22;53956;52.442;13.284;2022-09-20T15:52:15;16.60;91.30
18126;DHT22;53956;52.442;13.284;2022-09-20T15:54:43;16.60;92.40
18126;DHT22;53956;52.442;13.284;2022-09-20T15:57:10;16.70;92.10
18126;DHT22;53956;52.442;13.284;2022-09-20T15:59:37;16.80;92.20
18126;DHT22;53956;52.442;13.284;2022-09-20T16:02:03;16.70;92.20
18126;DHT22;53956;52.442;13.284;2022-09-20T16:04:30;16.70;92.30
18126;DHT22;53956;52.442;13.284;2022-09-20T16:06:59;16.70;92.50
18126;DHT22;53956;52.442;13.284;2022-09-20T16:09:29;16.70;93.00
18126;DHT22;53956;52.442;13.284;2022-09-20T16:11:57;16.70;93.50
18126;DHT22;53956;52.442;13.284;2022-09-20T16:14:24;16.70;94.00
18126;DHT22;53956;52.442;13.284;2022-09-20T16:16:51;16.80;94.20
18126;DHT22;53956;52.442;13.284;2022-09-20T16:19:17;16.90;93.00
18126;DHT22;53956;52.442;13.284;2022-09-20T16:21:46;16.90;92.80
18126;DHT22;53956;52.442;13.284;2022-09-20T16:24:14;16.80;93.20
18126;DHT22;53956;52.442;13.284;2022-09-20T16:26:42;16.90;93.30
18126;DHT22;53956;52.442;13.284;2022-09-20T16:29:10;16.80;92.80